sensor_id;sensor_type;location;lat;lon;timestamp;pressure;altitude;pressure_sealevel;temperature
25985;BMP280;66753;53.848;10.658;2023-02-15T00:03:16;102875.88;;;3.14
25985;BMP280;66753;53.848;10.658;2023-02-15T00:08:17;102882.69;;;3.15
25985;BMP280;66753;53.848;10.658;2023-02-15T00:13:18;102878.50;;;3.14
25985;BMP280;66753;53.848;10.658;2023-02-15T00:18:18;102873.25;;;3.14
25985;BMP280;66753;53.848;10.658;2023-02-15T00:23:19;102867.44;;;3.12
25985;BMP280;66753;53.848;10.658;2023-02-15T00:28:19;102874.16;;;3.08
25985;BMP280;66753;53.848;10.658;2023-02-15T00:33:20;102857.34;;;2.98
25985;BMP280;66753;53.848;10.658;2023-02-15T00:38:20;102856.13;;;3.00
25985;BMP280;66753;53.848;10.658;2023-02-15T00:43:21;102863.41;;;2.98
25985;BMP280;66753;53.848;10.658;2023-02-15T00:48:22;102857.94;;;3.00
25985;BMP280;66753;53.848;10.658;2023-02-15T00:53:22;102860.19;;;2.96
25985;BMP280;66753;53.848;10.658;2023-02-15T00:58:24;102850.19;;;2.93
25985;BMP280;66753;53.848;10.658;2023-02-15T01:03:25;102850.88;;;2.89
25985;BMP280;66753;53.848;10.658;2023-02-15T01:08:26;102837.44;;;2.85
25985;BMP280;66753;53.848;10.658;2023-02-15T01:13:27;102831.06;;;2.81
25985;BMP280;66753;53.848;10.658;2023-02-15T01:18:27;102828.84;;;2.78
25985;BMP280;66753;53.848;10.658;2023-02-15T01:23:28;102833.78;;;2.86
25985;BMP280;66753;53.848;10.658;2023-02-15T01:28:28;102830.59;;;2.84
25985;BMP280;66753;53.848;10.658;2023-02-15T01:33:29;102828.84;;;2.78
25985;BMP280;66753;53.848;10.658;2023-02-15T01:38:32;102816.66;;;2.72
25985;BMP280;66753;53.848;10.658;2023-02-15T01:43:51;102809.91;;;2.65
25985;BMP280;66753;53.848;10.658;2023-02-15T01:48:56;102796.94;;;2.58
25985;BMP280;66753;53.848;10.658;2023-02-15T01:54:02;102798.44;;;2.54
25985;BMP280;66753;53.848;10.658;2023-02-15T01:59:09;102786.66;;;2.45
25985;BMP280;66753;53.848;10.658;2023-02-15T02:04:18;102781.72;;;2.37
25985;BMP280;66753;53.848;10.658;2023-02-15T02:09:23;102782.19;;;2.34
25985;BMP280;66753;53.848;10.658;2023-02-15T02:14:24;102766.81;;;2.26
25985;BMP280;66753;53.848;10.658;2023-02-15T02:35:39;102755.44;;;2.03
25985;BMP280;66753;53.848;10.658;2023-02-15T02:46:27;102732.72;;;1.85
25985;BMP280;66753;53.848;10.658;2023-02-15T02:51:28;102721.72;;;1.83
25985;BMP280;66753;53.848;10.658;2023-02-15T03:01:44;102715.78;;;1.76
25985;BMP280;66753;53.848;10.658;2023-02-15T03:11:49;102708.09;;;1.81
25985;BMP280;66753;53.848;10.658;2023-02-15T03:16:51;102704.78;;;1.86
25985;BMP280;66753;53.848;10.658;2023-02-15T03:21:56;102696.25;;;1.90
25985;BMP280;66753;53.848;10.658;2023-02-15T03:26:58;102687.09;;;1.99
25985;BMP280;66753;53.848;10.658;2023-02-15T03:32:03;102660.78;;;1.94
25985;BMP280;66753;53.848;10.658;2023-02-15T03:42:18;102681.38;;;2.20
25985;BMP280;66753;53.848;10.658;2023-02-15T03:47:26;102674.75;;;2.29
25985;BMP280;66753;53.848;10.658;2023-02-15T03:52:29;102675.00;;;2.39
25985;BMP280;66753;53.848;10.658;2023-02-15T03:57:31;102675.50;;;2.48
25985;BMP280;66753;53.848;10.658;2023-02-15T04:07:59;102692.69;;;2.67
25985;BMP280;66753;53.848;10.658;2023-02-15T04:12:59;102695.19;;;2.73
25985;BMP280;66753;53.848;10.658;2023-02-15T04:18:02;102690.28;;;2.77
25985;BMP280;66753;53.848;10.658;2023-02-15T04:23:06;102696.47;;;2.82
25985;BMP280;66753;53.848;10.658;2023-02-15T04:28:24;102692.03;;;2.83
25985;BMP280;66753;53.848;10.658;2023-02-15T04:33:25;102689.81;;;2.91
25985;BMP280;66753;53.848;10.658;2023-02-15T04:38:25;102688.00;;;2.92
25985;BMP280;66753;53.848;10.658;2023-02-15T04:43:26;102683.34;;;2.94
25985;BMP280;66753;53.848;10.658;2023-02-15T04:48:26;102677.41;;;2.98
25985;BMP280;66753;53.848;10.658;2023-02-15T04:53:26;102681.63;;;2.99
25985;BMP280;66753;53.848;10.658;2023-02-15T04:58:27;102676.38;;;2.99
25985;BMP280;66753;53.848;10.658;2023-02-15T05:03:27;102675.81;;;2.97
25985;BMP280;66753;53.848;10.658;2023-02-15T05:08:28;102676.38;;;2.99
25985;BMP280;66753;53.848;10.658;2023-02-15T05:13:28;102689.03;;;3.02
25985;BMP280;66753;53.848;10.658;2023-02-15T05:18:29;102681.84;;;3.09
25985;BMP280;66753;53.848;10.658;2023-02-15T05:23:29;102677.28;;;3.16
25985;BMP280;66753;53.848;10.658;2023-02-15T05:28:30;102690.47;;;3.21
25985;BMP280;66753;53.848;10.658;2023-02-15T05:33:30;102682.53;;;3.16
25985;BMP280;66753;53.848;10.658;2023-02-15T05:38:32;102675.34;;;3.12
25985;BMP280;66753;53.848;10.658;2023-02-15T05:43:33;102670.69;;;3.14
25985;BMP280;66753;53.848;10.658;2023-02-15T05:48:34;102660.63;;;3.22
25985;BMP280;66753;53.848;10.658;2023-02-15T05:53:37;102657.56;;;3.25
25985;BMP280;66753;53.848;10.658;2023-02-15T05:58:39;102661.75;;;3.26
25985;BMP280;66753;53.848;10.658;2023-02-15T06:03:40;102667.44;;;3.23
25985;BMP280;66753;53.848;10.658;2023-02-15T06:08:41;102670.06;;;3.23
25985;BMP280;66753;53.848;10.658;2023-02-15T06:13:41;102658.31;;;3.26
25985;BMP280;66753;53.848;10.658;2023-02-15T06:18:41;102659.00;;;3.21
25985;BMP280;66753;53.848;10.658;2023-02-15T06:23:43;102665.22;;;3.15
25985;BMP280;66753;53.848;10.658;2023-02-15T06:28:43;102659.00;;;3.21
25985;BMP280;66753;53.848;10.658;2023-02-15T06:33:43;102657.19;;;3.22
25985;BMP280;66753;53.848;10.658;2023-02-15T06:38:44;102649.22;;;3.28
25985;BMP280;66753;53.848;10.658;2023-02-15T06:43:44;102659.59;;;3.35
25985;BMP280;66753;53.848;10.658;2023-02-15T06:48:45;102658.31;;;3.37
25985;BMP280;66753;53.848;10.658;2023-02-15T06:53:45;102668.31;;;3.40
25985;BMP280;66753;53.848;10.658;2023-02-15T06:58:45;102671.03;;;3.45
25985;BMP280;66753;53.848;10.658;2023-02-15T07:03:46;102664.63;;;3.53
25985;BMP280;66753;53.848;10.658;2023-02-15T07:08:46;102668.84;;;3.54
25985;BMP280;66753;53.848;10.658;2023-02-15T07:13:47;102656.63;;;3.60
25985;BMP280;66753;53.848;10.658;2023-02-15T07:18:47;102664.66;;;3.70
25985;BMP280;66753;53.848;10.658;2023-02-15T07:23:48;102647.38;;;3.69
25985;BMP280;66753;53.848;10.658;2023-02-15T07:28:48;102651.47;;;3.65
25985;BMP280;66753;53.848;10.658;2023-02-15T07:33:49;102644.50;;;3.70
25985;BMP280;66753;53.848;10.658;2023-02-15T07:38:49;102646.03;;;3.83
25985;BMP280;66753;53.848;10.658;2023-02-15T07:43:50;102636.19;;;3.90
25985;BMP280;66753;53.848;10.658;2023-02-15T07:48:50;102645.72;;;3.96
25985;BMP280;66753;53.848;10.658;2023-02-15T07:53:50;102640.16;;;3.92
25985;BMP280;66753;53.848;10.658;2023-02-15T07:58:51;102634.19;;;3.97
25985;BMP280;66753;53.848;10.658;2023-02-15T08:03:53;102632.22;;;4.04
25985;BMP280;66753;53.848;10.658;2023-02-15T08:08:54;102632.53;;;4.07
25985;BMP280;66753;53.848;10.658;2023-02-15T08:13:59;102623.78;;;4.02
25985;BMP280;66753;53.848;10.658;2023-02-15T08:19:06;102617.66;;;4.13
25985;BMP280;66753;53.848;10.658;2023-02-15T08:24:08;102621.31;;;4.28
25985;BMP280;66753;53.848;10.658;2023-02-15T08:29:09;102612.19;;;4.31
25985;BMP280;66753;53.848;10.658;2023-02-15T08:34:11;102609.56;;;4.31
25985;BMP280;66753;53.848;10.658;2023-02-15T08:39:14;102611.19;;;4.37
25985;BMP280;66753;53.848;10.658;2023-02-15T08:44:17;102597.50;;;4.35
25985;BMP280;66753;53.848;10.658;2023-02-15T08:49:20;102601.19;;;4.34
25985;BMP280;66753;53.848;10.658;2023-02-15T08:54:21;102601.84;;;4.24
25985;BMP280;66753;53.848;10.658;2023-02-15T08:59:22;102578.28;;;4.29
25985;BMP280;66753;53.848;10.658;2023-02-15T09:04:23;102586.59;;;4.43
25985;BMP280;66753;53.848;10.658;2023-02-15T09:09:23;102588.78;;;4.51
25985;BMP280;66753;53.848;10.658;2023-02-15T09:14:25;102601.44;;;4.54
25985;BMP280;66753;53.848;10.658;2023-02-15T09:19:26;102588.25;;;4.49
25985;BMP280;66753;53.848;10.658;2023-02-15T09:24:27;102599.50;;;4.66
25985;BMP280;66753;53.848;10.658;2023-02-15T09:29:27;102592.47;;;4.71
25985;BMP280;66753;53.848;10.658;2023-02-15T09:34:28;102594.22;;;4.82
25985;BMP280;66753;53.848;10.658;2023-02-15T09:39:28;102609.44;;;5.02
25985;BMP280;66753;53.848;10.658;2023-02-15T10:00:24;102597.78;;;5.46
25985;BMP280;66753;53.848;10.658;2023-02-15T10:16:19;102601.22;;;5.83
25985;BMP280;66753;53.848;10.658;2023-02-15T10:26:47;102596.69;;;6.10
25985;BMP280;66753;53.848;10.658;2023-02-15T10:31:48;102591.47;;;6.20
25985;BMP280;66753;53.848;10.658;2023-02-15T10:37:17;102583.56;;;6.20
25985;BMP280;66753;53.848;10.658;2023-02-15T10:42:55;102588.78;;;6.15
25985;BMP280;66753;53.848;10.658;2023-02-15T10:48:21;102593.09;;;6.31
25985;BMP280;66753;53.848;10.658;2023-02-15T11:09:25;102566.25;;;6.34
25985;BMP280;66753;53.848;10.658;2023-02-15T11:20:00;102554.94;;;6.34
25985;BMP280;66753;53.848;10.658;2023-02-15T11:25:16;102553.41;;;6.43
25985;BMP280;66753;53.848;10.658;2023-02-15T11:30:22;102567.97;;;6.65
25985;BMP280;66753;53.848;10.658;2023-02-15T11:35:34;102562.72;;;6.80
25985;BMP280;66753;53.848;10.658;2023-02-15T11:40:48;102550.63;;;6.84
25985;BMP280;66753;53.848;10.658;2023-02-15T11:45:49;102542.75;;;6.99
25985;BMP280;66753;53.848;10.658;2023-02-15T11:50:50;102544.88;;;6.97
25985;BMP280;66753;53.848;10.658;2023-02-15T11:55:50;102557.53;;;7.05
25985;BMP280;66753;53.848;10.658;2023-02-15T12:01:00;102538.78;;;6.92
25985;BMP280;66753;53.848;10.658;2023-02-15T12:06:04;102542.22;;;7.02
25985;BMP280;66753;53.848;10.658;2023-02-15T12:11:09;102533.03;;;7.20
25985;BMP280;66753;53.848;10.658;2023-02-15T12:16:12;102524.56;;;7.38
25985;BMP280;66753;53.848;10.658;2023-02-15T12:21:26;102532.22;;;7.49
25985;BMP280;66753;53.848;10.658;2023-02-15T12:26:28;102520.03;;;7.63
25985;BMP280;66753;53.848;10.658;2023-02-15T12:31:38;102515.78;;;7.72
25985;BMP280;66753;53.848;10.658;2023-02-15T12:36:44;102506.31;;;7.76
25985;BMP280;66753;53.848;10.658;2023-02-15T12:46:59;102500.69;;;7.93
25985;BMP280;66753;53.848;10.658;2023-02-15T12:52:05;102494.09;;;7.90
25985;BMP280;66753;53.848;10.658;2023-02-15T13:02:46;102471.75;;;7.68
25985;BMP280;66753;53.848;10.658;2023-02-15T13:07:50;102463.06;;;7.57
25985;BMP280;66753;53.848;10.658;2023-02-15T13:12:52;102465.41;;;7.59
25985;BMP280;66753;53.848;10.658;2023-02-15T13:17:56;102468.03;;;7.69
25985;BMP280;66753;53.848;10.658;2023-02-15T13:22:58;102472.78;;;7.77
25985;BMP280;66753;53.848;10.658;2023-02-15T13:28:04;102458.75;;;7.81
25985;BMP280;66753;53.848;10.658;2023-02-15T13:33:09;102462.97;;;7.82
25985;BMP280;66753;53.848;10.658;2023-02-15T13:43:46;102448.66;;;7.98
25985;BMP280;66753;53.848;10.658;2023-02-15T13:49:25;102441.28;;;7.95
25985;BMP280;66753;53.848;10.658;2023-02-15T13:54:46;102431.81;;;7.84
25985;BMP280;66753;53.848;10.658;2023-02-15T14:10:38;102426.28;;;7.86
25985;BMP280;66753;53.848;10.658;2023-02-15T14:15:49;102428.41;;;7.74
25985;BMP280;66753;53.848;10.658;2023-02-15T14:25:56;102437.13;;;7.74
25985;BMP280;66753;53.848;10.658;2023-02-15T14:30:59;102427.13;;;7.66
25985;BMP280;66753;53.848;10.658;2023-02-15T14:36:01;102426.13;;;7.57
25985;BMP280;66753;53.848;10.658;2023-02-15T14:41:13;102423.19;;;7.59
25985;BMP280;66753;53.848;10.658;2023-02-15T14:57:19;102417.13;;;7.68
25985;BMP280;66753;53.848;10.658;2023-02-15T15:22:33;102393.00;;;7.21
25985;BMP280;66753;53.848;10.658;2023-02-15T15:27:48;102410.63;;;7.26
25985;BMP280;66753;53.848;10.658;2023-02-15T15:48:38;102405.66;;;6.99
25985;BMP280;66753;53.848;10.658;2023-02-15T15:53:42;102405.16;;;6.87
25985;BMP280;66753;53.848;10.658;2023-02-15T15:58:48;102399.84;;;6.92
25985;BMP280;66753;53.848;10.658;2023-02-15T16:03:52;102390.88;;;6.93
25985;BMP280;66753;53.848;10.658;2023-02-15T16:08:53;102388.25;;;6.93
25985;BMP280;66753;53.848;10.658;2023-02-15T16:13:55;102368.22;;;6.97
25985;BMP280;66753;53.848;10.658;2023-02-15T16:18:56;102374.53;;;7.01
25985;BMP280;66753;53.848;10.658;2023-02-15T16:24:18;102364.78;;;7.02
25985;BMP280;66753;53.848;10.658;2023-02-15T16:29:32;102370.59;;;7.04
25985;BMP280;66753;53.848;10.658;2023-02-15T16:34:33;102366.38;;;6.98
25985;BMP280;66753;53.848;10.658;2023-02-15T16:39:40;102369.28;;;6.96
25985;BMP280;66753;53.848;10.658;2023-02-15T16:44:41;102379.31;;;6.94
25985;BMP280;66753;53.848;10.658;2023-02-15T16:49:46;102372.16;;;6.90
25985;BMP280;66753;53.848;10.658;2023-02-15T16:54:51;102365.31;;;6.84
25985;BMP280;66753;53.848;10.658;2023-02-15T16:59:55;102359.84;;;6.75
25985;BMP280;66753;53.848;10.658;2023-02-15T17:11:00;102361.38;;;6.76
25985;BMP280;66753;53.848;10.658;2023-02-15T17:21:10;102347.16;;;6.67
25985;BMP280;66753;53.848;10.658;2023-02-15T17:26:35;102330.03;;;6.55
25985;BMP280;66753;53.848;10.658;2023-02-15T17:31:36;102334.50;;;6.54
25985;BMP280;66753;53.848;10.658;2023-02-15T17:36:57;102324.75;;;6.50
25985;BMP280;66753;53.848;10.658;2023-02-15T17:41:58;102324.78;;;6.45
25985;BMP280;66753;53.848;10.658;2023-02-15T17:46:58;102323.44;;;6.42
25985;BMP280;66753;53.848;10.658;2023-02-15T17:52:02;102317.91;;;6.44
25985;BMP280;66753;53.848;10.658;2023-02-15T17:57:12;102311.34;;;6.36
25985;BMP280;66753;53.848;10.658;2023-02-15T18:02:13;102318.69;;;6.34
25985;BMP280;66753;53.848;10.658;2023-02-15T18:07:31;102308.94;;;6.30
25985;BMP280;66753;53.848;10.658;2023-02-15T18:12:50;102315.56;;;6.32
25985;BMP280;66753;53.848;10.658;2023-02-15T18:17:51;102317.63;;;6.25
25985;BMP280;66753;53.848;10.658;2023-02-15T18:22:51;102314.50;;;6.18
25985;BMP280;66753;53.848;10.658;2023-02-15T18:27:52;102300.50;;;6.13
25985;BMP280;66753;53.848;10.658;2023-02-15T18:32:54;102316.03;;;6.09
25985;BMP280;66753;53.848;10.658;2023-02-15T18:37:57;102319.19;;;6.06
25985;BMP280;66753;53.848;10.658;2023-02-15T18:42:58;102304.19;;;6.02
25985;BMP280;66753;53.848;10.658;2023-02-15T18:47:58;102303.38;;;6.01
25985;BMP280;66753;53.848;10.658;2023-02-15T18:53:01;102296.03;;;6.03
25985;BMP280;66753;53.848;10.658;2023-02-15T18:58:03;102304.19;;;6.07
25985;BMP280;66753;53.848;10.658;2023-02-15T19:03:03;102308.13;;;6.04
25985;BMP280;66753;53.848;10.658;2023-02-15T19:08:04;102303.38;;;6.01
25985;BMP280;66753;53.848;10.658;2023-02-15T19:13:09;102287.84;;;5.95
25985;BMP280;66753;53.848;10.658;2023-02-15T19:18:10;102284.41;;;5.89
25985;BMP280;66753;53.848;10.658;2023-02-15T19:23:20;102266.25;;;5.88
25985;BMP280;66753;53.848;10.658;2023-02-15T19:28:32;102274.94;;;5.83
25985;BMP280;66753;53.848;10.658;2023-02-15T19:33:33;102260.72;;;5.84
25985;BMP280;66753;53.848;10.658;2023-02-15T19:38:34;102262.03;;;5.82
25985;BMP280;66753;53.848;10.658;2023-02-15T19:43:36;102250.44;;;5.78
25985;BMP280;66753;53.848;10.658;2023-02-15T19:48:36;102256.47;;;5.73
25985;BMP280;66753;53.848;10.658;2023-02-15T19:53:36;102250.69;;;5.71
25985;BMP280;66753;53.848;10.658;2023-02-15T19:58:37;102264.91;;;5.70
25985;BMP280;66753;53.848;10.658;2023-02-15T20:03:37;102271.72;;;5.71
25985;BMP280;66753;53.848;10.658;2023-02-15T20:08:38;102246.47;;;5.65
25985;BMP280;66753;53.848;10.658;2023-02-15T20:13:39;102241.75;;;5.62
25985;BMP280;66753;53.848;10.658;2023-02-15T20:18:40;102244.31;;;5.52
25985;BMP280;66753;53.848;10.658;2023-02-15T20:23:43;102253.81;;;5.53
25985;BMP280;66753;53.848;10.658;2023-02-15T20:28:46;102241.69;;;5.42
25985;BMP280;66753;53.848;10.658;2023-02-15T20:33:48;102239.06;;;5.42
25985;BMP280;66753;53.848;10.658;2023-02-15T20:38:48;102242.75;;;5.46
25985;BMP280;66753;53.848;10.658;2023-02-15T20:43:48;102241.16;;;5.45
25985;BMP280;66753;53.848;10.658;2023-02-15T20:48:49;102235.09;;;5.44
25985;BMP280;66753;53.848;10.658;2023-02-15T20:53:49;102243.00;;;5.44
25985;BMP280;66753;53.848;10.658;2023-02-15T20:58:51;102244.81;;;5.44
25985;BMP280;66753;53.848;10.658;2023-02-15T21:03:52;102243.25;;;5.43
25985;BMP280;66753;53.848;10.658;2023-02-15T21:08:52;102231.41;;;5.45
25985;BMP280;66753;53.848;10.658;2023-02-15T21:13:52;102225.66;;;5.48
25985;BMP280;66753;53.848;10.658;2023-02-15T21:18:53;102227.22;;;5.44
25985;BMP280;66753;53.848;10.658;2023-02-15T21:23:53;102223.78;;;5.34
25985;BMP280;66753;53.848;10.658;2023-02-15T21:28:54;102228.50;;;5.32
25985;BMP280;66753;53.848;10.658;2023-02-15T21:33:55;102212.44;;;5.28
25985;BMP280;66753;53.848;10.658;2023-02-15T21:38:57;102211.63;;;5.23
25985;BMP280;66753;53.848;10.658;2023-02-15T21:43:57;102210.59;;;5.29
25985;BMP280;66753;53.848;10.658;2023-02-15T21:49:16;102209.81;;;5.28
25985;BMP280;66753;53.848;10.658;2023-02-15T21:54:18;102201.13;;;5.23
25985;BMP280;66753;53.848;10.658;2023-02-15T21:59:18;102192.16;;;5.24
25985;BMP280;66753;53.848;10.658;2023-02-15T22:04:24;102197.44;;;5.24
25985;BMP280;66753;53.848;10.658;2023-02-15T22:09:26;102166.41;;;5.16
25985;BMP280;66753;53.848;10.658;2023-02-15T22:19:33;102181.63;;;5.14
25985;BMP280;66753;53.848;10.658;2023-02-15T22:24:33;102178.44;;;5.07
25985;BMP280;66753;53.848;10.658;2023-02-15T22:29:34;102178.66;;;4.95
25985;BMP280;66753;53.848;10.658;2023-02-15T22:34:34;102169.94;;;4.90
25985;BMP280;66753;53.848;10.658;2023-02-15T22:39:36;102164.19;;;4.93
25985;BMP280;66753;53.848;10.658;2023-02-15T22:44:36;102165.22;;;4.92
25985;BMP280;66753;53.848;10.658;2023-02-15T22:49:37;102162.06;;;4.85
25985;BMP280;66753;53.848;10.658;2023-02-15T22:54:37;102151.00;;;4.78
25985;BMP280;66753;53.848;10.658;2023-02-15T22:59:37;102138.63;;;4.73
25985;BMP280;66753;53.848;10.658;2023-02-15T23:04:38;102143.63;;;4.75
25985;BMP280;66753;53.848;10.658;2023-02-15T23:09:38;102118.66;;;4.67
25985;BMP280;66753;53.848;10.658;2023-02-15T23:14:39;102125.19;;;4.65
25985;BMP280;66753;53.848;10.658;2023-02-15T23:19:39;102120.97;;;4.59
25985;BMP280;66753;53.848;10.658;2023-02-15T23:24:40;102112.50;;;4.52
25985;BMP280;66753;53.848;10.658;2023-02-15T23:29:40;102099.81;;;4.39
25985;BMP280;66753;53.848;10.658;2023-02-15T23:34:42;102104.81;;;4.35
25985;BMP280;66753;53.848;10.658;2023-02-15T23:39:42;102102.97;;;4.31
25985;BMP280;66753;53.848;10.658;2023-02-15T23:45:02;102092.88;;;4.18
25985;BMP280;66753;53.848;10.658;2023-02-15T23:50:09;102091.53;;;4.10
25985;BMP280;66753;53.848;10.658;2023-02-15T23:55:15;102085.41;;;4.00
